createdAt,value
2022-10-27T00:00:07.364Z,2.83
2022-10-27T00:02:33.905Z,3.42
2022-10-27T00:05:00.471Z,4.50
2022-10-27T00:07:26.997Z,4.35
2022-10-27T00:09:53.593Z,4.00
2022-10-27T00:12:20.172Z,4.63
2022-10-27T00:14:46.735Z,3.70
2022-10-27T00:17:13.271Z,3.15
2022-10-27T00:19:39.850Z,4.03
2022-10-27T00:22:06.400Z,4.38
2022-10-27T00:24:32.937Z,3.22
2022-10-27T00:26:59.479Z,3.95
2022-10-27T00:29:26.066Z,5.93
2022-10-27T00:31:52.610Z,3.45
2022-10-27T00:34:19.115Z,5.63
2022-10-27T00:36:45.650Z,3.60
2022-10-27T00:39:12.186Z,3.58
2022-10-27T00:41:41.643Z,4.47
2022-10-27T00:44:40.182Z,7.05
2022-10-27T00:47:09.537Z,3.97
2022-10-27T00:49:47.864Z,4.93
2022-10-27T00:52:41.383Z,5.20
2022-10-27T00:55:15.631Z,3.83
2022-10-27T00:57:46.482Z,3.65
2022-10-27T01:00:13.656Z,3.40
2022-10-27T01:02:40.241Z,4.25
2022-10-27T01:05:17.632Z,2.53
2022-10-27T01:07:45.900Z,2.33
2022-10-27T01:10:13.370Z,2.85
2022-10-27T01:12:40.240Z,3.67
2022-10-27T01:15:07.813Z,3.85
2022-10-27T01:17:52.497Z,2.78
2022-10-27T01:23:28.669Z,3.80
2022-10-27T01:26:19.508Z,3.00
2022-10-27T01:29:10.188Z,3.33
2022-10-27T01:31:45.853Z,4.13
2022-10-27T01:34:33.504Z,3.38
2022-10-27T01:37:21.931Z,3.88
2022-10-27T01:40:16.254Z,4.25
2022-10-27T01:42:49.538Z,2.90
2022-10-27T01:45:21.499Z,3.40
2022-10-27T01:47:48.911Z,4.47
2022-10-27T01:50:26.654Z,4.00
2022-10-27T01:52:53.443Z,4.55
2022-10-27T01:55:44.658Z,4.05
2022-10-27T02:00:50.436Z,4.72
2022-10-27T02:03:23.367Z,4.68
2022-10-27T02:06:09.816Z,4.20
2022-10-27T02:08:44.545Z,2.67
2022-10-27T02:11:12.228Z,3.13
2022-10-27T02:13:42.628Z,3.60
2022-10-27T02:16:14.151Z,4.30
2022-10-27T02:18:52.495Z,3.55
2022-10-27T02:23:46.461Z,3.17
2022-10-27T02:26:35.852Z,3.17
2022-10-27T02:29:06.311Z,2.92
2022-10-27T02:31:43.395Z,2.97
2022-10-27T02:34:10.982Z,3.05
2022-10-27T02:36:37.679Z,2.92
2022-10-27T02:39:04.219Z,4.10
2022-10-27T02:41:30.750Z,2.78
2022-10-27T02:43:57.312Z,2.97
2022-10-27T02:46:24.024Z,3.38
2022-10-27T02:48:50.531Z,3.92
2022-10-27T02:51:17.071Z,2.83
2022-10-27T02:53:43.595Z,4.20
2022-10-27T02:56:10.354Z,4.13
2022-10-27T02:58:36.967Z,3.92
2022-10-27T03:01:03.705Z,2.80
2022-10-27T03:03:30.367Z,3.78
2022-10-27T03:05:56.900Z,3.33
2022-10-27T03:08:23.567Z,3.67
2022-10-27T03:10:50.192Z,2.70
2022-10-27T03:13:16.831Z,3.58
2022-10-27T03:15:46.676Z,3.38
2022-10-27T03:18:13.836Z,3.67
2022-10-27T03:20:40.363Z,3.80
2022-10-27T03:23:06.944Z,2.63
2022-10-27T03:25:33.610Z,2.42
2022-10-27T03:28:00.104Z,3.60
2022-10-27T03:30:26.683Z,2.95
2022-10-27T03:32:53.468Z,2.83
2022-10-27T03:35:21.054Z,3.40
2022-10-27T03:37:55.928Z,3.03
2022-10-27T03:40:22.998Z,3.35
2022-10-27T03:42:49.707Z,2.88
2022-10-27T03:45:16.669Z,2.92
2022-10-27T03:47:43.262Z,3.10
2022-10-27T03:50:09.952Z,2.75
2022-10-27T03:52:36.528Z,3.35
2022-10-27T03:55:03.198Z,2.85
2022-10-27T03:57:29.698Z,2.53
2022-10-27T03:59:56.243Z,2.72
2022-10-27T04:02:22.792Z,3.38
2022-10-27T04:04:49.384Z,2.95
2022-10-27T04:07:15.920Z,4.57
2022-10-27T04:09:42.462Z,3.80
2022-10-27T04:12:09.078Z,2.53
2022-10-27T04:14:35.900Z,4.20
2022-10-27T04:17:02.556Z,3.30
2022-10-27T04:19:29.070Z,3.63
2022-10-27T04:21:55.637Z,3.78
2022-10-27T04:24:22.145Z,2.78
2022-10-27T04:26:48.704Z,3.78
2022-10-27T04:29:15.209Z,2.47
2022-10-27T04:31:41.743Z,3.67
2022-10-27T04:34:08.393Z,2.75
2022-10-27T04:36:34.957Z,4.05
2022-10-27T04:39:01.782Z,2.70
2022-10-27T04:41:28.308Z,2.85
2022-10-27T04:43:54.870Z,3.10
2022-10-27T04:46:21.791Z,3.00
2022-10-27T04:48:48.370Z,2.78
2022-10-27T04:51:18.057Z,3.20
2022-10-27T04:53:47.191Z,2.35
2022-10-27T04:56:13.819Z,3.08
2022-10-27T04:58:40.492Z,2.05
2022-10-27T05:01:08.683Z,2.13
2022-10-27T05:03:35.395Z,2.55
2022-10-27T05:06:02.233Z,1.90
2022-10-27T05:08:28.795Z,3.22
2022-10-27T05:10:55.376Z,2.50
2022-10-27T05:13:22.128Z,2.67
2022-10-27T05:15:48.776Z,3.58
2022-10-27T05:18:15.524Z,3.53
2022-10-27T05:20:42.121Z,3.20
2022-10-27T05:23:08.699Z,2.38
2022-10-27T05:25:35.279Z,2.42
2022-10-27T05:28:06.716Z,2.50
2022-10-27T05:30:33.932Z,3.33
2022-10-27T05:33:00.596Z,3.80
2022-10-27T05:35:27.183Z,3.60
2022-10-27T05:37:53.920Z,3.72
2022-10-27T05:40:20.571Z,3.17
2022-10-27T05:42:55.182Z,4.03
2022-10-27T05:45:23.722Z,3.13
2022-10-27T05:47:57.527Z,2.45
2022-10-27T05:50:24.204Z,4.28
2022-10-27T05:52:50.991Z,2.83
2022-10-27T05:55:17.688Z,2.67
2022-10-27T05:58:01.616Z,2.53
2022-10-27T06:00:34.852Z,3.05
2022-10-27T06:03:02.843Z,3.05
2022-10-27T06:05:31.148Z,2.38
2022-10-27T06:07:58.058Z,3.22
2022-10-27T06:10:25.520Z,3.60
2022-10-27T06:12:52.348Z,2.97
2022-10-27T06:15:18.915Z,2.45
2022-10-27T06:17:45.435Z,2.58
2022-10-27T06:20:12.206Z,2.90
2022-10-27T06:22:38.737Z,3.00
2022-10-27T06:25:05.731Z,3.35
2022-10-27T06:27:32.281Z,3.97
2022-10-27T06:29:58.853Z,3.17
2022-10-27T06:34:56.894Z,2.22
2022-10-27T06:37:23.494Z,3.08
2022-10-27T06:39:50.062Z,3.33
2022-10-27T06:42:16.606Z,3.58
2022-10-27T06:44:43.460Z,3.22
2022-10-27T06:47:10.070Z,2.95
2022-10-27T06:49:36.581Z,2.58
2022-10-27T06:52:03.123Z,3.65
2022-10-27T06:54:29.719Z,2.20
2022-10-27T06:56:56.256Z,2.72
2022-10-27T06:59:22.880Z,2.80
2022-10-27T07:01:49.540Z,2.60
2022-10-27T07:04:16.164Z,2.65
2022-10-27T07:06:42.758Z,2.25
2022-10-27T07:09:10.070Z,3.10
2022-10-27T07:11:37.291Z,2.50
2022-10-27T07:14:04.103Z,3.78
2022-10-27T07:16:34.052Z,2.33
2022-10-27T07:19:02.018Z,3.10
2022-10-27T07:21:29.265Z,2.35
2022-10-27T07:23:55.918Z,2.40
2022-10-27T07:26:22.664Z,2.05
2022-10-27T07:28:49.301Z,2.05
2022-10-27T07:31:15.904Z,2.50
2022-10-27T07:33:42.429Z,2.22
2022-10-27T07:36:09.017Z,2.42
2022-10-27T07:38:36.212Z,2.58
2022-10-27T07:41:02.752Z,2.90
2022-10-27T07:43:29.297Z,1.48
2022-10-27T07:45:55.883Z,3.70
2022-10-27T07:48:22.536Z,2.63
2022-10-27T07:53:20.618Z,2.55
2022-10-27T07:55:47.284Z,3.28
2022-10-27T07:58:16.039Z,2.47
2022-10-27T08:00:47.557Z,2.90
2022-10-27T08:03:19.700Z,2.53
2022-10-27T08:08:14.447Z,1.30
2022-10-27T08:10:42.656Z,2.58
2022-10-27T08:13:10.601Z,2.83
2022-10-27T08:15:38.617Z,3.15
2022-10-27T08:18:06.265Z,2.03
2022-10-27T08:20:35.245Z,2.22
2022-10-27T08:23:05.079Z,2.20
2022-10-27T08:25:32.017Z,1.98
2022-10-27T08:27:59.193Z,1.40
2022-10-27T08:30:33.611Z,3.42
2022-10-27T08:33:03.445Z,2.72
2022-10-27T08:35:31.734Z,2.75
2022-10-27T08:38:11.245Z,3.50
2022-10-27T08:43:21.569Z,2.35
2022-10-27T08:45:59.326Z,2.53
2022-10-27T08:48:27.197Z,2.85
2022-10-27T08:50:54.009Z,3.95
2022-10-27T08:53:28.791Z,3.45
2022-10-27T08:56:03.291Z,2.97
2022-10-27T09:01:22.568Z,2.72
2022-10-27T09:03:55.035Z,2.78
2022-10-27T09:06:27.197Z,2.20
2022-10-27T09:09:08.265Z,2.22
2022-10-27T09:11:43.616Z,2.55
2022-10-27T09:14:13.125Z,2.53
2022-10-27T09:16:48.029Z,3.17
2022-10-27T09:19:29.175Z,2.75
2022-10-27T09:21:55.955Z,3.00
2022-10-27T09:24:26.352Z,2.53
2022-10-27T09:26:53.554Z,2.65
2022-10-27T09:29:22.519Z,2.95
2022-10-27T09:31:55.931Z,3.08
2022-10-27T09:34:40.258Z,2.38
2022-10-27T09:37:15.235Z,2.85
2022-10-27T09:39:46.481Z,2.65
2022-10-27T09:42:13.054Z,2.05
2022-10-27T09:44:39.986Z,2.67
2022-10-27T09:47:06.675Z,2.30
2022-10-27T09:49:39.301Z,2.10
2022-10-27T09:52:42.521Z,4.07
2022-10-27T09:55:09.563Z,2.00
2022-10-27T09:57:39.430Z,1.90
2022-10-27T10:00:16.418Z,3.13
2022-10-27T10:05:34.172Z,2.70
2022-10-27T10:08:22.613Z,3.00
2022-10-27T10:11:04.502Z,4.20
2022-10-27T10:13:33.078Z,3.78
2022-10-27T10:16:07.738Z,3.45
2022-10-27T10:18:38.757Z,2.33
2022-10-27T10:21:08.869Z,3.75
2022-10-27T10:23:39.869Z,3.38
2022-10-27T10:26:17.431Z,3.25
2022-10-27T10:28:44.804Z,2.97
2022-10-27T10:31:15.111Z,3.28
2022-10-27T10:33:45.455Z,2.83
2022-10-27T10:36:37.838Z,3.70
2022-10-27T10:39:22.975Z,3.28
2022-10-27T10:42:15.146Z,4.20
2022-10-27T10:44:42.121Z,3.33
2022-10-27T10:47:26.809Z,2.30
2022-10-27T10:49:57.300Z,3.20
2022-10-27T10:52:30.125Z,2.92
2022-10-27T10:54:56.691Z,2.70
2022-10-27T10:57:36.969Z,4.40
2022-10-27T11:00:06.417Z,4.28
2022-10-27T11:02:34.832Z,3.17
2022-10-27T11:05:19.520Z,2.50
2022-10-27T11:10:16.353Z,2.55
2022-10-27T11:13:14.478Z,3.22
2022-10-27T11:15:43.950Z,3.00
2022-10-27T11:18:22.257Z,3.03
2022-10-27T11:21:24.113Z,3.00
2022-10-27T11:23:58.432Z,2.85
2022-10-27T11:26:34.268Z,3.88
2022-10-27T11:29:35.309Z,2.38
2022-10-27T11:32:15.473Z,4.38
2022-10-27T11:34:57.226Z,4.60
2022-10-27T11:38:04.044Z,3.70
2022-10-27T11:40:50.433Z,3.53
2022-10-27T11:43:28.313Z,3.97
2022-10-27T11:46:02.325Z,5.32
2022-10-27T11:48:39.771Z,2.92
2022-10-27T11:51:18.402Z,5.07
2022-10-27T11:53:45.070Z,3.78
2022-10-27T11:56:17.637Z,4.22
2022-10-27T11:59:20.984Z,3.58
2022-10-27T12:02:13.285Z,3.25
2022-10-27T12:05:19.820Z,2.92
2022-10-27T12:08:04.222Z,3.67
2022-10-27T12:10:43.867Z,2.45
2022-10-27T12:13:24.570Z,4.80
2022-10-27T12:16:00.876Z,2.03
2022-10-27T12:18:59.126Z,2.45
2022-10-27T12:21:47.560Z,4.85
2022-10-27T12:24:39.836Z,4.40
2022-10-27T12:27:15.316Z,2.42
2022-10-27T12:29:48.494Z,2.47
2022-10-27T12:32:25.306Z,2.80
2022-10-27T12:35:18.916Z,3.90
2022-10-27T12:37:50.456Z,3.50
2022-10-27T12:40:29.999Z,2.90
2022-10-27T12:43:28.589Z,2.75
2022-10-27T12:46:21.253Z,3.58
2022-10-27T12:49:11.989Z,3.55
2022-10-27T12:52:12.048Z,3.63
2022-10-27T12:55:12.414Z,3.15
2022-10-27T12:58:13.422Z,2.72
2022-10-27T13:00:56.022Z,4.45
2022-10-27T13:03:31.504Z,3.63
2022-10-27T13:06:11.026Z,4.15
2022-10-27T13:08:56.314Z,4.00
2022-10-27T13:11:46.309Z,3.63
2022-10-27T13:14:27.772Z,3.28
2022-10-27T13:17:12.839Z,3.30
2022-10-27T13:19:52.243Z,3.60
2022-10-27T13:22:30.946Z,4.70
2022-10-27T13:25:19.730Z,4.28
2022-10-27T13:27:55.868Z,3.17
2022-10-27T13:30:24.601Z,3.83
2022-10-27T13:32:53.557Z,4.03
2022-10-27T13:35:20.766Z,3.47
2022-10-27T13:38:19.006Z,3.65
2022-10-27T13:40:45.941Z,4.43
2022-10-27T13:43:21.778Z,3.10
2022-10-27T13:45:51.079Z,4.40
2022-10-27T13:48:17.602Z,3.08
2022-10-27T13:50:58.753Z,4.15
2022-10-27T13:53:28.350Z,3.65
2022-10-27T13:56:00.009Z,3.55
2022-10-27T13:58:46.335Z,3.63
2022-10-27T14:01:35.512Z,3.50
2022-10-27T14:04:21.603Z,3.75
2022-10-27T14:06:50.644Z,3.13
2022-10-27T14:09:26.851Z,4.45
2022-10-27T14:11:56.450Z,3.53
2022-10-27T14:14:24.955Z,3.95
2022-10-27T14:16:52.610Z,3.15
2022-10-27T14:19:25.019Z,3.17
2022-10-27T14:21:56.255Z,4.20
2022-10-27T14:24:31.091Z,5.35
2022-10-27T14:26:59.008Z,3.40
2022-10-27T14:29:25.622Z,3.72
2022-10-27T14:31:52.481Z,3.80
2022-10-27T14:34:23.155Z,3.70
2022-10-27T14:36:51.123Z,2.72
2022-10-27T14:39:24.026Z,3.30
2022-10-27T14:41:51.906Z,4.30
2022-10-27T14:44:26.172Z,3.67
2022-10-27T14:46:57.230Z,2.85
2022-10-27T14:49:34.629Z,3.80
2022-10-27T14:52:06.012Z,4.97
2022-10-27T14:54:32.843Z,3.50
2022-10-27T14:57:37.174Z,4.18
2022-10-27T15:00:42.447Z,4.35
2022-10-27T15:03:09.463Z,3.50
2022-10-27T15:05:46.077Z,4.63
2022-10-27T15:08:17.523Z,5.30
2022-10-27T15:10:47.170Z,3.70
2022-10-27T15:13:18.436Z,4.40
2022-10-27T15:15:47.782Z,5.05
2022-10-27T15:18:30.979Z,3.38
2022-10-27T15:20:58.723Z,4.88
2022-10-27T15:23:26.183Z,4.57
2022-10-27T15:25:58.429Z,5.38
2022-10-27T15:28:29.742Z,3.60
2022-10-27T15:30:56.713Z,4.90
2022-10-27T15:33:29.103Z,4.10
2022-10-27T15:36:14.739Z,3.17
2022-10-27T15:38:42.937Z,3.03
2022-10-27T15:41:20.423Z,3.97
2022-10-27T15:43:53.618Z,5.75
2022-10-27T15:46:32.416Z,3.78
2022-10-27T15:49:01.929Z,5.57
2022-10-27T15:51:59.642Z,3.60
2022-10-27T15:54:34.690Z,4.22
2022-10-27T15:57:03.211Z,5.07
2022-10-27T15:59:31.592Z,4.00
2022-10-27T16:02:22.542Z,4.30
2022-10-27T16:07:16.832Z,4.93
2022-10-27T16:09:45.295Z,5.78
2022-10-27T16:12:22.292Z,4.57
2022-10-27T16:14:54.528Z,6.03
2022-10-27T16:17:22.735Z,4.93
2022-10-27T16:19:50.044Z,5.00
2022-10-27T16:22:19.631Z,3.42
2022-10-27T16:24:46.678Z,3.55
2022-10-27T16:27:19.718Z,5.45
2022-10-27T16:29:48.543Z,3.55
2022-10-27T16:32:15.070Z,3.50
2022-10-27T16:34:41.565Z,4.30
2022-10-27T16:37:30.236Z,3.70
2022-10-27T16:39:57.122Z,5.82
2022-10-27T16:42:25.341Z,5.30
2022-10-27T16:44:51.904Z,4.68
2022-10-27T16:47:22.378Z,4.03
2022-10-27T16:49:49.242Z,4.90
2022-10-27T16:52:16.152Z,3.17
2022-10-27T16:54:42.854Z,6.53
2022-10-27T16:57:10.045Z,5.88
2022-10-27T16:59:36.712Z,3.83
2022-10-27T17:02:03.385Z,4.65
2022-10-27T17:04:30.036Z,5.28
2022-10-27T17:06:56.641Z,5.03
2022-10-27T17:09:23.215Z,5.22
2022-10-27T17:11:51.624Z,3.58
2022-10-27T17:14:18.253Z,6.43
2022-10-27T17:16:44.931Z,3.78
2022-10-27T17:19:11.497Z,4.88
2022-10-27T17:21:38.005Z,5.47
2022-10-27T17:24:04.875Z,6.63
2022-10-27T17:26:32.507Z,4.95
2022-10-27T17:28:59.923Z,5.55
2022-10-27T17:31:27.534Z,5.35
2022-10-27T17:33:59.772Z,3.88
2022-10-27T17:36:27.325Z,4.35
2022-10-27T17:38:54.297Z,6.50
2022-10-27T17:41:20.918Z,6.65
2022-10-27T17:43:47.800Z,6.25
2022-10-27T17:46:19.205Z,6.15
2022-10-27T17:48:51.862Z,5.13
2022-10-27T17:51:21.460Z,6.32
2022-10-27T17:53:48.813Z,4.82
2022-10-27T17:56:20.948Z,6.50
2022-10-27T17:58:48.609Z,4.97
2022-10-27T18:01:18.351Z,7.20
2022-10-27T18:03:47.256Z,6.88
2022-10-27T18:06:16.005Z,5.38
2022-10-27T18:08:43.490Z,5.13
2022-10-27T18:11:11.505Z,7.18
2022-10-27T18:13:40.379Z,5.57
2022-10-27T18:16:09.329Z,5.65
2022-10-27T18:18:36.671Z,6.43
2022-10-27T18:21:08.836Z,4.78
2022-10-27T18:23:36.412Z,5.55
2022-10-27T18:26:07.995Z,6.22
2022-10-27T18:31:09.963Z,5.72
2022-10-27T18:33:36.668Z,4.40
2022-10-27T18:36:12.422Z,6.38
2022-10-27T18:38:39.050Z,6.10
2022-10-27T18:41:08.883Z,6.20
2022-10-27T18:43:35.577Z,7.13
2022-10-27T18:46:07.018Z,6.97
2022-10-27T18:48:36.166Z,4.65
2022-10-27T18:51:05.522Z,4.50
2022-10-27T18:53:32.538Z,5.53
2022-10-27T18:56:04.950Z,4.85
2022-10-27T18:58:32.195Z,6.10
2022-10-27T19:01:13.070Z,7.20
2022-10-27T19:03:41.035Z,4.35
2022-10-27T19:06:09.788Z,6.72
2022-10-27T19:08:36.759Z,4.20
2022-10-27T19:11:04.491Z,5.78
2022-10-27T19:13:31.474Z,7.88
2022-10-27T19:16:06.452Z,6.68
2022-10-27T19:18:33.457Z,6.28
2022-10-27T19:21:02.003Z,5.35
2022-10-27T19:23:29.037Z,6.13
2022-10-27T19:26:13.419Z,6.40
2022-10-27T19:28:41.402Z,6.03
2022-10-27T19:31:14.490Z,7.32
2022-10-27T19:33:44.023Z,6.78
2022-10-27T19:36:13.628Z,6.75
2022-10-27T19:38:40.813Z,6.40
2022-10-27T19:41:17.227Z,7.63
2022-10-27T19:43:47.207Z,5.95
2022-10-27T19:46:17.569Z,5.85
2022-10-27T19:48:44.374Z,7.05
2022-10-27T19:51:15.511Z,7.07
2022-10-27T19:53:43.875Z,6.07
2022-10-27T19:56:11.189Z,6.70
2022-10-27T19:58:37.851Z,6.45
2022-10-27T20:01:30.533Z,6.65
2022-10-27T20:04:03.209Z,5.28
2022-10-27T20:06:29.959Z,5.30
2022-10-27T20:08:56.764Z,6.18
2022-10-27T20:11:26.169Z,5.82
2022-10-27T20:13:55.432Z,7.03
2022-10-27T20:16:25.810Z,6.38
2022-10-27T20:18:53.146Z,4.25
2022-10-27T20:21:20.577Z,5.88
2022-10-27T20:23:47.345Z,6.22
2022-10-27T20:26:30.897Z,5.75
2022-10-27T20:29:01.409Z,5.25
2022-10-27T20:31:28.917Z,5.88
2022-10-27T20:33:56.231Z,6.85
2022-10-27T20:36:23.429Z,7.68
2022-10-27T20:38:50.342Z,6.97
2022-10-27T20:41:20.231Z,6.68
2022-10-27T20:43:47.126Z,7.10
2022-10-27T20:46:13.926Z,6.55
2022-10-27T20:48:43.303Z,7.53
2022-10-27T20:51:15.204Z,6.70
2022-10-27T20:53:41.923Z,6.32
2022-10-27T20:56:15.600Z,7.38
2022-10-27T20:58:42.187Z,5.13
2022-10-27T21:01:17.755Z,6.43
2022-10-27T21:03:44.365Z,7.35
2022-10-27T21:06:10.911Z,5.82
2022-10-27T21:08:37.515Z,5.57
2022-10-27T21:11:04.559Z,5.05
2022-10-27T21:13:31.105Z,3.95
2022-10-27T21:15:59.486Z,5.80
2022-10-27T21:18:26.910Z,5.63
2022-10-27T21:20:53.465Z,4.75
2022-10-27T21:23:20.058Z,6.30
2022-10-27T21:25:46.773Z,6.60
2022-10-27T21:28:13.651Z,6.53
2022-10-27T21:30:40.226Z,5.47
2022-10-27T21:33:06.761Z,6.43
2022-10-27T21:35:33.301Z,5.00
2022-10-27T21:38:01.085Z,4.75
2022-10-27T21:40:27.706Z,6.75
2022-10-27T21:42:57.377Z,7.47
2022-10-27T21:45:24.107Z,5.85
2022-10-27T21:47:50.932Z,6.53
2022-10-27T21:50:17.783Z,7.57
2022-10-27T21:52:44.480Z,6.65
2022-10-27T21:55:11.060Z,7.15
2022-10-27T21:57:37.563Z,6.72
2022-10-27T22:00:05.476Z,5.95
2022-10-27T22:02:32.012Z,7.90
2022-10-27T22:04:58.606Z,6.15
2022-10-27T22:07:25.572Z,7.78
2022-10-27T22:09:52.132Z,5.78
2022-10-27T22:12:18.646Z,6.40
2022-10-27T22:14:45.167Z,8.25
2022-10-27T22:17:11.733Z,5.45
2022-10-27T22:19:38.408Z,8.20
2022-10-27T22:22:04.997Z,7.10
2022-10-27T22:24:31.573Z,7.00
2022-10-27T22:26:58.081Z,5.28
2022-10-27T22:29:24.640Z,5.72
2022-10-27T22:31:51.227Z,5.13
2022-10-27T22:34:17.877Z,4.40
2022-10-27T22:36:44.407Z,4.45
2022-10-27T22:39:12.392Z,6.72
2022-10-27T22:41:39.011Z,4.22
2022-10-27T22:44:06.329Z,7.47
2022-10-27T22:46:34.259Z,8.98
2022-10-27T22:49:00.944Z,6.53
2022-10-27T22:51:28.532Z,8.20
2022-10-27T22:53:56.706Z,7.15
2022-10-27T22:56:27.182Z,8.60
2022-10-27T22:58:55.814Z,7.47
2022-10-27T23:01:31.634Z,6.55
2022-10-27T23:04:00.888Z,6.25
2022-10-27T23:06:29.902Z,4.82
2022-10-27T23:08:58.735Z,5.90
2022-10-27T23:11:28.866Z,4.57
2022-10-27T23:13:55.404Z,5.18
2022-10-27T23:16:22.085Z,4.20
2022-10-27T23:18:48.658Z,5.13
2022-10-27T23:21:16.431Z,4.28
2022-10-27T23:23:43.539Z,5.45
2022-10-27T23:26:21.086Z,4.55
2022-10-27T23:28:52.286Z,5.20
2022-10-27T23:31:19.615Z,4.63
2022-10-27T23:33:46.842Z,4.07
2022-10-27T23:36:13.686Z,4.43
2022-10-27T23:38:40.262Z,4.63
2022-10-27T23:41:06.821Z,4.85
2022-10-27T23:43:33.353Z,4.00
2022-10-27T23:46:07.678Z,3.95
2022-10-27T23:48:35.427Z,4.00
2022-10-27T23:51:02.760Z,4.78
2022-10-27T23:53:30.746Z,4.70
2022-10-27T23:56:02.509Z,3.88
2022-10-27T23:58:30.610Z,3.92
